createdAt,value
2022-10-26T00:01:08.951Z,6.10
2022-10-26T00:03:36.967Z,5.78
2022-10-26T00:06:12.708Z,6.22
2022-10-26T00:08:39.994Z,5.93
2022-10-26T00:11:07.490Z,6.50
2022-10-26T00:13:34.947Z,6.75
2022-10-26T00:16:02.018Z,6.72
2022-10-26T00:18:28.944Z,6.47
2022-10-26T00:20:55.717Z,6.80
2022-10-26T00:23:22.604Z,7.20
2022-10-26T00:25:56.691Z,7.68
2022-10-26T00:28:24.017Z,7.00
2022-10-26T00:30:50.972Z,7.03
2022-10-26T00:33:18.429Z,7.15
2022-10-26T00:35:49.283Z,6.55
2022-10-26T00:38:16.120Z,6.90
2022-10-26T00:40:44.286Z,6.93
2022-10-26T00:43:35.762Z,6.88
2022-10-26T00:46:05.042Z,7.05
2022-10-26T00:48:38.415Z,6.97
2022-10-26T00:51:36.992Z,6.95
2022-10-26T00:54:09.386Z,7.03
2022-10-26T00:56:36.532Z,6.88
2022-10-26T00:59:07.981Z,7.63
2022-10-26T01:01:37.616Z,7.13
2022-10-26T01:04:04.648Z,7.43
2022-10-26T01:06:33.132Z,7.38
2022-10-26T01:09:00.417Z,7.32
2022-10-26T01:11:27.258Z,7.40
2022-10-26T01:13:56.775Z,8.27
2022-10-26T01:19:51.876Z,6.82
2022-10-26T01:22:32.261Z,6.70
2022-10-26T01:25:08.880Z,6.57
2022-10-26T01:27:39.818Z,6.65
2022-10-26T01:30:38.372Z,6.70
2022-10-26T01:33:17.174Z,6.70
2022-10-26T01:36:22.305Z,6.57
2022-10-26T01:39:19.792Z,6.30
2022-10-26T01:41:50.041Z,6.15
2022-10-26T01:44:32.319Z,6.78
2022-10-26T01:47:01.571Z,6.13
2022-10-26T01:49:39.680Z,6.00
2022-10-26T01:52:08.542Z,6.00
2022-10-26T01:57:09.444Z,5.72
2022-10-26T02:00:09.285Z,5.00
2022-10-26T02:02:54.268Z,6.13
2022-10-26T02:05:45.943Z,5.70
2022-10-26T02:08:59.809Z,5.15
2022-10-26T02:11:53.501Z,6.07
2022-10-26T02:14:49.918Z,5.35
2022-10-26T02:20:19.314Z,5.25
2022-10-26T02:22:49.526Z,5.95
2022-10-26T02:25:21.233Z,5.90
2022-10-26T02:27:59.881Z,5.07
2022-10-26T02:30:28.000Z,5.40
2022-10-26T02:32:57.641Z,5.05
2022-10-26T02:35:31.052Z,5.65
2022-10-26T02:38:01.325Z,5.25
2022-10-26T02:40:29.557Z,4.95
2022-10-26T02:43:00.615Z,4.63
2022-10-26T02:45:33.100Z,4.97
2022-10-26T02:48:00.082Z,4.65
2022-10-26T02:50:50.788Z,5.10
2022-10-26T02:53:27.564Z,4.40
2022-10-26T02:55:54.555Z,5.15
2022-10-26T02:58:26.817Z,5.50
2022-10-26T03:00:54.086Z,4.65
2022-10-26T03:03:21.541Z,4.90
2022-10-26T03:05:48.397Z,4.38
2022-10-26T03:08:15.316Z,4.43
2022-10-26T03:10:44.431Z,3.97
2022-10-26T03:13:12.624Z,4.35
2022-10-26T03:15:40.174Z,4.25
2022-10-26T03:18:07.525Z,4.68
2022-10-26T03:20:34.805Z,3.95
2022-10-26T03:23:01.571Z,4.65
2022-10-26T03:25:28.813Z,3.90
2022-10-26T03:28:00.519Z,4.35
2022-10-26T03:30:28.000Z,4.22
2022-10-26T03:32:55.249Z,3.80
2022-10-26T03:35:22.361Z,4.07
2022-10-26T03:37:52.029Z,3.58
2022-10-26T03:40:19.534Z,3.85
2022-10-26T03:42:46.499Z,3.85
2022-10-26T03:45:13.445Z,3.28
2022-10-26T03:47:48.689Z,3.75
2022-10-26T03:50:18.557Z,4.05
2022-10-26T03:52:47.706Z,3.15
2022-10-26T03:55:15.310Z,4.00
2022-10-26T03:57:43.484Z,3.90
2022-10-26T04:00:12.796Z,3.35
2022-10-26T04:02:39.924Z,4.07
2022-10-26T04:05:07.424Z,3.63
2022-10-26T04:07:34.345Z,4.47
2022-10-26T04:10:01.158Z,3.70
2022-10-26T04:12:27.945Z,4.13
2022-10-26T04:14:54.805Z,3.67
2022-10-26T04:17:21.805Z,3.70
2022-10-26T04:19:48.555Z,3.30
2022-10-26T04:22:15.385Z,3.60
2022-10-26T04:24:42.287Z,3.35
2022-10-26T04:27:09.137Z,3.80
2022-10-26T04:29:35.892Z,3.58
2022-10-26T04:32:03.158Z,3.65
2022-10-26T04:34:29.900Z,3.42
2022-10-26T04:36:56.785Z,3.20
2022-10-26T04:39:23.933Z,3.30
2022-10-26T04:41:50.777Z,3.40
2022-10-26T04:44:17.547Z,3.53
2022-10-26T04:46:44.732Z,3.67
2022-10-26T04:49:11.744Z,3.50
2022-10-26T04:51:38.606Z,3.20
2022-10-26T04:54:05.481Z,3.50
2022-10-26T04:56:32.478Z,3.00
2022-10-26T04:58:59.283Z,3.83
2022-10-26T05:01:26.483Z,3.67
2022-10-26T05:03:53.986Z,3.63
2022-10-26T05:06:21.516Z,4.03
2022-10-26T05:08:48.676Z,3.55
2022-10-26T05:11:15.857Z,3.70
2022-10-26T05:13:42.660Z,3.50
2022-10-26T05:16:09.527Z,3.50
2022-10-26T05:18:36.317Z,3.58
2022-10-26T05:21:03.273Z,3.58
2022-10-26T05:23:30.122Z,3.05
2022-10-26T05:25:57.102Z,3.38
2022-10-26T05:28:23.939Z,3.50
2022-10-26T05:30:50.807Z,4.07
2022-10-26T05:33:17.875Z,3.45
2022-10-26T05:35:44.745Z,3.55
2022-10-26T05:38:17.228Z,3.60
2022-10-26T05:40:48.730Z,3.60
2022-10-26T05:43:15.682Z,3.38
2022-10-26T05:45:42.504Z,3.72
2022-10-26T05:48:09.354Z,3.38
2022-10-26T05:50:36.511Z,3.70
2022-10-26T05:53:03.793Z,3.22
2022-10-26T05:55:31.090Z,3.72
2022-10-26T05:57:58.469Z,3.33
2022-10-26T06:00:27.675Z,3.70
2022-10-26T06:03:20.538Z,4.18
2022-10-26T06:06:00.676Z,3.72
2022-10-26T06:08:30.190Z,4.13
2022-10-26T06:11:03.074Z,4.90
2022-10-26T06:13:30.182Z,3.33
2022-10-26T06:16:25.142Z,4.10
2022-10-26T06:19:19.162Z,4.07
2022-10-26T06:22:10.660Z,4.20
2022-10-26T06:25:09.776Z,4.00
2022-10-26T06:27:50.117Z,4.25
2022-10-26T06:30:23.458Z,4.07
2022-10-26T06:33:01.405Z,4.15
2022-10-26T06:35:41.469Z,4.22
2022-10-26T06:38:13.538Z,3.83
2022-10-26T06:40:43.671Z,3.83
2022-10-26T06:43:26.019Z,3.75
2022-10-26T06:46:12.093Z,3.42
2022-10-26T06:48:57.556Z,3.10
2022-10-26T06:51:27.597Z,3.72
2022-10-26T06:54:01.925Z,4.32
2022-10-26T06:56:29.359Z,3.75
2022-10-26T06:59:02.322Z,4.15
2022-10-26T07:03:58.478Z,3.97
2022-10-26T07:06:25.653Z,3.83
2022-10-26T07:08:52.503Z,4.05
2022-10-26T07:11:19.351Z,3.75
2022-10-26T07:13:46.205Z,4.40
2022-10-26T07:16:13.019Z,4.22
2022-10-26T07:18:39.845Z,3.78
2022-10-26T07:21:06.718Z,3.95
2022-10-26T07:23:33.518Z,3.75
2022-10-26T07:26:00.733Z,3.72
2022-10-26T07:28:27.677Z,3.78
2022-10-26T07:30:56.174Z,3.78
2022-10-26T07:33:23.277Z,3.78
2022-10-26T07:35:50.170Z,3.65
2022-10-26T07:38:16.981Z,3.63
2022-10-26T07:40:43.808Z,3.75
2022-10-26T07:43:10.608Z,3.88
2022-10-26T07:45:37.480Z,3.83
2022-10-26T07:48:04.466Z,3.75
2022-10-26T07:50:31.260Z,3.78
2022-10-26T07:52:59.810Z,3.45
2022-10-26T07:55:27.634Z,3.80
2022-10-26T07:57:55.704Z,4.00
2022-10-26T08:00:23.201Z,4.28
2022-10-26T08:02:50.029Z,3.95
2022-10-26T08:05:17.226Z,3.95
2022-10-26T08:07:45.700Z,3.88
2022-10-26T08:10:14.090Z,3.72
2022-10-26T08:12:42.037Z,3.40
2022-10-26T08:15:09.901Z,3.53
2022-10-26T08:17:36.680Z,3.47
2022-10-26T08:20:03.974Z,3.33
2022-10-26T08:22:30.951Z,3.92
2022-10-26T08:24:57.864Z,3.67
2022-10-26T08:27:24.648Z,3.13
2022-10-26T08:29:51.635Z,3.55
2022-10-26T08:32:18.473Z,3.20
2022-10-26T08:34:45.304Z,3.35
2022-10-26T08:37:12.198Z,3.55
2022-10-26T08:39:39.089Z,3.10
2022-10-26T08:42:20.360Z,3.55
2022-10-26T08:44:50.003Z,3.30
2022-10-26T08:47:26.913Z,3.28
2022-10-26T08:50:05.664Z,2.97
2022-10-26T08:52:49.058Z,3.35
2022-10-26T08:55:23.660Z,3.40
2022-10-26T08:57:52.141Z,3.60
2022-10-26T09:00:24.873Z,3.63
2022-10-26T09:02:53.245Z,3.47
2022-10-26T09:05:38.748Z,3.45
2022-10-26T09:08:08.928Z,3.50
2022-10-26T09:10:38.633Z,3.53
2022-10-26T09:13:24.716Z,3.88
2022-10-26T09:16:11.345Z,3.35
2022-10-26T09:19:14.693Z,3.25
2022-10-26T09:21:56.649Z,3.53
2022-10-26T09:24:38.716Z,2.70
2022-10-26T09:27:27.751Z,3.05
2022-10-26T09:29:57.802Z,3.17
2022-10-26T09:32:38.131Z,3.10
2022-10-26T09:35:22.655Z,3.40
2022-10-26T09:38:03.521Z,2.92
2022-10-26T09:40:34.348Z,3.65
2022-10-26T09:43:26.677Z,3.22
2022-10-26T09:45:53.838Z,3.13
2022-10-26T09:48:31.103Z,2.80
2022-10-26T09:51:03.454Z,3.15
2022-10-26T09:53:32.278Z,3.03
2022-10-26T09:56:06.999Z,2.83
2022-10-26T09:58:41.604Z,2.90
2022-10-26T10:01:35.673Z,2.93
2022-10-26T10:04:16.669Z,2.65
2022-10-26T10:06:45.245Z,2.55
2022-10-26T10:09:24.313Z,2.53
2022-10-26T10:11:58.002Z,2.63
2022-10-26T10:14:26.125Z,2.58
2022-10-26T10:16:56.307Z,2.65
2022-10-26T10:19:26.514Z,2.70
2022-10-26T10:21:57.160Z,2.28
2022-10-26T10:24:29.883Z,2.33
2022-10-26T10:27:15.750Z,2.42
2022-10-26T10:32:38.827Z,2.53
2022-10-26T10:35:24.564Z,2.38
2022-10-26T10:37:52.541Z,2.60
2022-10-26T10:40:25.528Z,2.70
2022-10-26T10:43:01.723Z,2.70
2022-10-26T10:45:31.066Z,2.97
2022-10-26T10:48:12.780Z,2.88
2022-10-26T10:50:55.430Z,2.80
2022-10-26T10:53:29.864Z,2.95
2022-10-26T10:56:10.778Z,2.50
2022-10-26T10:59:06.865Z,2.58
2022-10-26T11:02:04.531Z,2.42
2022-10-26T11:04:43.646Z,2.85
2022-10-26T11:07:13.340Z,2.60
2022-10-26T11:09:43.600Z,2.50
2022-10-26T11:12:18.588Z,2.28
2022-10-26T11:14:59.890Z,2.47
2022-10-26T11:17:36.354Z,2.20
2022-10-26T11:20:12.525Z,2.20
2022-10-26T11:23:00.365Z,2.30
2022-10-26T11:26:11.123Z,2.40
2022-10-26T11:28:41.341Z,2.40
2022-10-26T11:31:14.728Z,1.80
2022-10-26T11:33:47.164Z,2.30
2022-10-26T11:36:19.853Z,2.00
2022-10-26T11:39:07.336Z,2.03
2022-10-26T11:41:43.221Z,2.35
2022-10-26T11:44:29.563Z,2.38
2022-10-26T11:47:02.461Z,2.40
2022-10-26T11:50:04.331Z,2.15
2022-10-26T11:52:45.039Z,1.98
2022-10-26T11:55:12.309Z,2.10
2022-10-26T11:57:40.922Z,2.03
2022-10-26T12:00:12.571Z,2.28
2022-10-26T12:05:16.193Z,2.03
2022-10-26T12:08:15.705Z,2.25
2022-10-26T12:10:49.174Z,2.35
2022-10-26T12:13:38.172Z,1.73
2022-10-26T12:16:18.097Z,1.80
2022-10-26T12:18:55.891Z,1.98
2022-10-26T12:21:27.596Z,1.83
2022-10-26T12:24:01.595Z,2.20
2022-10-26T12:26:28.607Z,2.50
2022-10-26T12:29:04.506Z,1.73
2022-10-26T12:31:37.334Z,2.00
2022-10-26T12:34:22.133Z,2.17
2022-10-26T12:36:58.116Z,2.00
2022-10-26T12:39:32.721Z,1.63
2022-10-26T12:42:10.401Z,2.17
2022-10-26T12:44:37.240Z,2.10
2022-10-26T12:47:04.862Z,2.00
2022-10-26T12:50:00.462Z,1.50
2022-10-26T12:52:44.918Z,1.80
2022-10-26T12:55:23.585Z,1.77
2022-10-26T12:58:14.144Z,2.10
2022-10-26T13:00:59.650Z,1.80
2022-10-26T13:03:26.428Z,1.90
2022-10-26T13:06:05.359Z,1.85
2022-10-26T13:08:57.746Z,2.25
2022-10-26T13:11:31.614Z,1.88
2022-10-26T13:14:05.316Z,1.73
2022-10-26T13:16:32.538Z,1.70
2022-10-26T13:19:00.377Z,1.83
2022-10-26T13:21:28.176Z,1.88
2022-10-26T13:23:54.952Z,2.00
2022-10-26T13:26:27.718Z,1.83
2022-10-26T13:29:00.465Z,1.88
2022-10-26T13:31:33.062Z,2.10
2022-10-26T13:34:02.026Z,1.77
2022-10-26T13:36:42.657Z,2.20
2022-10-26T13:39:12.888Z,1.70
2022-10-26T13:41:43.620Z,1.70
2022-10-26T13:44:39.152Z,1.92
2022-10-26T13:47:29.902Z,1.83
2022-10-26T13:50:08.792Z,1.83
2022-10-26T13:52:58.535Z,1.38
2022-10-26T13:55:37.045Z,1.73
2022-10-26T13:58:19.161Z,1.95
2022-10-26T14:01:04.765Z,1.77
2022-10-26T14:03:31.621Z,1.60
2022-10-26T14:05:58.764Z,1.90
2022-10-26T14:08:26.076Z,1.80
2022-10-26T14:11:00.090Z,2.35
2022-10-26T14:13:28.955Z,2.08
2022-10-26T14:15:57.142Z,1.40
2022-10-26T14:18:26.864Z,2.33
2022-10-26T14:21:13.600Z,2.28
2022-10-26T14:23:48.902Z,1.80
2022-10-26T14:26:30.091Z,2.10
2022-10-26T14:29:01.945Z,2.10
2022-10-26T14:31:34.507Z,1.77
2022-10-26T14:34:04.803Z,1.77
2022-10-26T14:36:37.129Z,2.38
2022-10-26T14:39:16.489Z,2.05
2022-10-26T14:41:43.739Z,1.88
2022-10-26T14:44:19.379Z,2.45
2022-10-26T14:46:46.801Z,2.10
2022-10-26T14:49:25.464Z,2.15
2022-10-26T14:51:59.961Z,2.00
2022-10-26T14:54:28.815Z,2.20
2022-10-26T14:56:56.206Z,2.22
2022-10-26T14:59:29.071Z,2.08
2022-10-26T15:01:58.694Z,1.92
2022-10-26T15:04:41.026Z,2.45
2022-10-26T15:07:07.793Z,2.78
2022-10-26T15:09:51.434Z,2.20
2022-10-26T15:12:39.137Z,2.20
2022-10-26T15:15:15.409Z,2.40
2022-10-26T15:17:48.525Z,2.03
2022-10-26T15:20:21.941Z,2.40
2022-10-26T15:23:01.066Z,1.92
2022-10-26T15:25:35.015Z,2.00
2022-10-26T15:28:21.337Z,2.33
2022-10-26T15:31:24.727Z,2.40
2022-10-26T15:33:51.489Z,1.75
2022-10-26T15:36:20.508Z,1.80
2022-10-26T15:38:48.477Z,2.05
2022-10-26T15:41:23.267Z,2.65
2022-10-26T15:43:52.390Z,2.25
2022-10-26T15:46:19.589Z,1.92
2022-10-26T15:48:54.032Z,2.08
2022-10-26T15:51:20.928Z,2.10
2022-10-26T15:53:47.693Z,2.47
2022-10-26T15:56:19.725Z,2.05
2022-10-26T15:58:47.223Z,2.28
2022-10-26T16:01:23.627Z,2.05
2022-10-26T16:03:51.536Z,2.55
2022-10-26T16:06:27.653Z,1.92
2022-10-26T16:08:58.091Z,2.10
2022-10-26T16:11:24.948Z,2.28
2022-10-26T16:13:51.823Z,2.78
2022-10-26T16:16:20.240Z,2.30
2022-10-26T16:18:49.085Z,2.08
2022-10-26T16:21:18.367Z,1.90
2022-10-26T16:23:50.611Z,2.33
2022-10-26T16:26:18.603Z,2.08
2022-10-26T16:28:45.618Z,2.20
2022-10-26T16:31:15.402Z,2.13
2022-10-26T16:33:42.382Z,2.00
2022-10-26T16:36:11.812Z,1.98
2022-10-26T16:38:38.794Z,2.40
2022-10-26T16:41:14.272Z,1.77
2022-10-26T16:43:42.938Z,2.08
2022-10-26T16:46:14.357Z,1.80
2022-10-26T16:48:42.631Z,2.22
2022-10-26T16:51:16.407Z,2.35
2022-10-26T16:53:43.927Z,2.40
2022-10-26T16:56:14.346Z,2.40
2022-10-26T16:58:41.996Z,2.50
2022-10-26T17:01:10.247Z,2.17
2022-10-26T17:03:37.194Z,2.58
2022-10-26T17:06:06.738Z,2.90
2022-10-26T17:08:36.449Z,2.55
2022-10-26T17:11:08.414Z,2.88
2022-10-26T17:13:36.597Z,3.03
2022-10-26T17:16:10.158Z,2.72
2022-10-26T17:18:37.192Z,2.60
2022-10-26T17:21:04.095Z,2.47
2022-10-26T17:23:30.960Z,2.42
2022-10-26T17:26:05.161Z,2.55
2022-10-26T17:28:32.970Z,2.78
2022-10-26T17:31:14.995Z,2.50
2022-10-26T17:33:44.284Z,2.72
2022-10-26T17:36:13.195Z,1.92
2022-10-26T17:38:41.834Z,2.53
2022-10-26T17:41:12.088Z,3.05
2022-10-26T17:43:40.465Z,3.10
2022-10-26T17:46:12.831Z,2.50
2022-10-26T17:48:39.919Z,2.38
2022-10-26T17:51:10.952Z,2.35
2022-10-26T17:53:37.982Z,2.95
2022-10-26T17:56:16.705Z,2.03
2022-10-26T17:58:43.595Z,2.55
2022-10-26T18:01:12.985Z,2.45
2022-10-26T18:03:40.183Z,2.95
2022-10-26T18:06:07.775Z,2.60
2022-10-26T18:08:36.425Z,2.70
2022-10-26T18:11:05.716Z,3.20
2022-10-26T18:13:34.168Z,2.70
2022-10-26T18:16:05.142Z,2.38
2022-10-26T18:18:32.479Z,2.50
2022-10-26T18:21:04.096Z,2.72
2022-10-26T18:23:30.985Z,2.72
2022-10-26T18:26:11.109Z,2.75
2022-10-26T18:28:40.346Z,3.25
2022-10-26T18:31:09.389Z,2.90
2022-10-26T18:33:36.371Z,2.95
2022-10-26T18:36:25.279Z,2.30
2022-10-26T18:38:52.802Z,2.92
2022-10-26T18:41:21.305Z,2.47
2022-10-26T18:43:54.032Z,2.33
2022-10-26T18:46:24.090Z,2.85
2022-10-26T18:48:55.294Z,2.85
2022-10-26T18:51:28.935Z,2.95
2022-10-26T18:53:57.092Z,2.65
2022-10-26T18:56:25.005Z,2.20
2022-10-26T18:58:55.465Z,3.15
2022-10-26T19:01:24.769Z,3.08
2022-10-26T19:03:57.220Z,2.70
2022-10-26T19:06:32.668Z,2.30
2022-10-26T19:11:28.741Z,2.00
2022-10-26T19:13:56.029Z,2.78
2022-10-26T19:16:45.934Z,2.60
2022-10-26T19:19:12.804Z,2.80
2022-10-26T19:21:39.600Z,2.10
2022-10-26T19:24:12.304Z,2.65
2022-10-26T19:26:43.235Z,2.50
2022-10-26T19:29:15.182Z,2.67
2022-10-26T19:31:46.652Z,3.25
2022-10-26T19:34:15.214Z,3.28
2022-10-26T19:36:45.015Z,2.85
2022-10-26T19:39:16.361Z,2.58
2022-10-26T19:41:44.300Z,3.15
2022-10-26T19:44:12.100Z,2.63
2022-10-26T19:46:39.718Z,2.15
2022-10-26T19:49:06.900Z,2.72
2022-10-26T19:51:33.967Z,2.90
2022-10-26T19:54:03.936Z,2.97
2022-10-26T19:56:32.319Z,2.78
2022-10-26T19:58:59.280Z,2.50
2022-10-26T20:01:26.499Z,2.70
2022-10-26T20:03:54.474Z,3.20
2022-10-26T20:06:21.282Z,2.60
2022-10-26T20:08:48.934Z,3.53
2022-10-26T20:11:17.483Z,3.33
2022-10-26T20:13:46.086Z,3.83
2022-10-26T20:16:13.939Z,4.18
2022-10-26T20:18:44.161Z,3.58
2022-10-26T20:21:15.519Z,3.22
2022-10-26T20:23:44.295Z,3.95
2022-10-26T20:26:18.204Z,3.83
2022-10-26T20:28:51.424Z,4.22
2022-10-26T20:31:19.398Z,3.50
2022-10-26T20:33:49.732Z,3.67
2022-10-26T20:36:16.624Z,3.65
2022-10-26T20:38:43.709Z,4.60
2022-10-26T20:41:14.876Z,5.53
2022-10-26T20:43:42.302Z,6.47
2022-10-26T20:46:20.500Z,4.57
2022-10-26T20:48:47.668Z,4.85
2022-10-26T20:51:39.955Z,5.18
2022-10-26T20:54:22.659Z,5.70
2022-10-26T20:56:50.897Z,5.78
2022-10-26T21:00:07.457Z,6.10
2022-10-26T21:02:34.945Z,6.30
2022-10-26T21:05:02.077Z,6.00
2022-10-26T21:07:29.082Z,6.85
2022-10-26T21:09:55.864Z,6.63
2022-10-26T21:12:22.978Z,6.65
2022-10-26T21:14:49.934Z,6.70
2022-10-26T21:17:16.799Z,7.18
2022-10-26T21:19:43.554Z,7.40
2022-10-26T21:22:10.499Z,7.20
2022-10-26T21:24:37.274Z,6.55
2022-10-26T21:27:04.207Z,6.57
2022-10-26T21:29:31.018Z,6.60
2022-10-26T21:31:57.889Z,6.38
2022-10-26T21:34:24.712Z,6.18
2022-10-26T21:36:51.538Z,6.65
2022-10-26T21:39:18.326Z,6.95
2022-10-26T21:41:45.154Z,6.65
2022-10-26T21:44:24.611Z,7.10
2022-10-26T21:46:58.791Z,7.40
2022-10-26T21:49:25.737Z,6.80
2022-10-26T21:51:52.556Z,6.63
2022-10-26T21:54:19.293Z,6.53
2022-10-26T21:56:46.116Z,6.20
2022-10-26T21:59:12.866Z,6.47
2022-10-26T22:01:39.808Z,6.00
2022-10-26T22:04:06.834Z,6.70
2022-10-26T22:06:33.692Z,6.20
2022-10-26T22:09:00.504Z,6.75
2022-10-26T22:11:27.552Z,6.22
2022-10-26T22:13:54.378Z,5.93
2022-10-26T22:16:21.171Z,6.22
2022-10-26T22:18:49.395Z,6.00
2022-10-26T22:21:18.146Z,5.60
2022-10-26T22:23:46.210Z,5.25
2022-10-26T22:26:15.968Z,5.68
2022-10-26T22:28:44.852Z,5.20
2022-10-26T22:31:20.916Z,5.32
2022-10-26T22:33:55.400Z,4.88
2022-10-26T22:36:23.434Z,4.20
2022-10-26T22:38:50.924Z,4.80
2022-10-26T22:41:19.192Z,4.50
2022-10-26T22:43:46.517Z,4.38
2022-10-26T22:46:17.064Z,4.78
2022-10-26T22:48:46.838Z,4.22
2022-10-26T22:51:23.860Z,4.13
2022-10-26T22:53:55.592Z,4.70
2022-10-26T22:56:23.806Z,4.43
2022-10-26T22:58:54.473Z,4.13
2022-10-26T23:01:24.888Z,4.70
2022-10-26T23:03:53.505Z,4.57
2022-10-26T23:06:20.538Z,4.97
2022-10-26T23:08:47.484Z,4.85
2022-10-26T23:11:16.881Z,4.28
2022-10-26T23:13:44.010Z,4.45
2022-10-26T23:16:13.882Z,4.88
2022-10-26T23:18:41.085Z,4.82
2022-10-26T23:21:09.597Z,4.68
2022-10-26T23:23:36.755Z,4.47
2022-10-26T23:26:08.739Z,4.32
2022-10-26T23:28:36.095Z,5.68
2022-10-26T23:31:03.190Z,4.65
2022-10-26T23:33:30.357Z,4.53
2022-10-26T23:35:57.500Z,4.35
2022-10-26T23:38:25.317Z,5.30
2022-10-26T23:40:53.571Z,4.63
2022-10-26T23:43:21.928Z,5.00
2022-10-26T23:45:49.012Z,4.35
2022-10-26T23:48:16.612Z,4.50
2022-10-26T23:50:44.604Z,4.38
2022-10-26T23:53:12.520Z,5.15
2022-10-26T23:55:39.852Z,5.30
2022-10-26T23:58:06.674Z,5.40
